sensor_id;sensor_type;location;lat;lon;timestamp;pressure;altitude;pressure_sealevel;temperature;humidity
72118;BME280;59992;47.490;8.736;2024-03-23T00:54:22;96125.20;;;7.64;83.61
72118;BME280;59992;47.490;8.736;2024-03-23T00:57:10;96125.19;;;7.63;84.98
72118;BME280;59992;47.490;8.736;2024-03-23T00:59:58;96118.71;;;7.63;82.36
72118;BME280;59992;47.490;8.736;2024-03-23T01:02:46;96114.02;;;7.71;84.92
72118;BME280;59992;47.490;8.736;2024-03-23T01:05:34;96106.77;;;7.80;83.36
72118;BME280;59992;47.490;8.736;2024-03-23T01:08:22;96103.86;;;7.91;82.83
72118;BME280;59992;47.490;8.736;2024-03-23T01:11:10;96098.94;;;8.04;81.55
72118;BME280;59992;47.490;8.736;2024-03-23T01:13:59;96092.33;;;8.20;81.32
72118;BME280;59992;47.490;8.736;2024-03-23T01:16:47;96090.39;;;8.38;79.79
72118;BME280;59992;47.490;8.736;2024-03-23T01:19:36;96091.28;;;8.77;80.96
72118;BME280;59992;47.490;8.736;2024-03-23T01:22:24;96086.30;;;8.96;79.31
72118;BME280;59992;47.490;8.736;2024-03-23T01:25:12;96091.77;;;9.11;78.20
72118;BME280;59992;47.490;8.736;2024-03-23T01:28:01;96083.66;;;9.24;77.55
72118;BME280;59992;47.490;8.736;2024-03-23T01:30:49;96080.51;;;9.41;76.43
72118;BME280;59992;47.490;8.736;2024-03-23T01:33:37;96077.66;;;9.59;76.15
72118;BME280;59992;47.490;8.736;2024-03-23T01:36:27;96074.04;;;9.71;75.51
72118;BME280;59992;47.490;8.736;2024-03-23T01:39:18;96070.38;;;9.86;75.80
72118;BME280;59992;47.490;8.736;2024-03-23T01:42:08;96057.32;;;9.90;74.86
72118;BME280;59992;47.490;8.736;2024-03-23T01:45:00;96061.64;;;10.18;73.64
72118;BME280;59992;47.490;8.736;2024-03-23T01:47:54;96058.30;;;10.30;74.02
72118;BME280;59992;47.490;8.736;2024-03-23T01:50:47;96049.63;;;10.35;73.01
72118;BME280;59992;47.490;8.736;2024-03-23T01:53:43;96043.77;;;10.42;72.49
72118;BME280;59992;47.490;8.736;2024-03-23T01:56:34;96038.70;;;10.47;72.46
72118;BME280;59992;47.490;8.736;2024-03-23T01:59:24;96031.36;;;10.47;72.27
72118;BME280;59992;47.490;8.736;2024-03-23T02:02:12;96021.59;;;10.43;71.98
72118;BME280;59992;47.490;8.736;2024-03-23T02:05:01;96020.91;;;10.46;72.13
72118;BME280;59992;47.490;8.736;2024-03-23T02:07:50;96016.14;;;10.44;72.84
72118;BME280;59992;47.490;8.736;2024-03-23T02:10:39;96017.11;;;10.43;73.42
72118;BME280;59992;47.490;8.736;2024-03-23T02:13:27;96014.77;;;10.41;73.11
72118;BME280;59992;47.490;8.736;2024-03-23T02:16:15;96007.19;;;10.40;73.70
72118;BME280;59992;47.490;8.736;2024-03-23T02:19:03;95997.27;;;10.39;73.38
72118;BME280;59992;47.490;8.736;2024-03-23T02:21:52;95995.90;;;10.39;73.74
72118;BME280;59992;47.490;8.736;2024-03-23T02:24:40;95986.89;;;10.39;73.20
72118;BME280;59992;47.490;8.736;2024-03-23T02:27:29;95981.69;;;10.44;73.67
72118;BME280;59992;47.490;8.736;2024-03-23T02:30:17;95977.17;;;10.49;73.43
72118;BME280;59992;47.490;8.736;2024-03-23T02:33:06;95975.98;;;10.53;73.31
72118;BME280;59992;47.490;8.736;2024-03-23T02:35:57;95977.73;;;10.56;73.43
72118;BME280;59992;47.490;8.736;2024-03-23T02:38:45;95971.84;;;10.63;71.87
72118;BME280;59992;47.490;8.736;2024-03-23T02:41:33;95963.79;;;10.80;70.82
72118;BME280;59992;47.490;8.736;2024-03-23T02:44:22;95963.59;;;11.00;70.48
72118;BME280;59992;47.490;8.736;2024-03-23T02:47:10;95955.49;;;11.15;69.34
72118;BME280;59992;47.490;8.736;2024-03-23T02:49:58;95931.64;;;11.12;69.96
72118;BME280;59992;47.490;8.736;2024-03-23T02:52:47;95951.19;;;11.34;69.73
72118;BME280;59992;47.490;8.736;2024-03-23T02:55:36;95953.39;;;11.40;68.74
72118;BME280;59992;47.490;8.736;2024-03-23T02:58:24;95945.49;;;11.49;67.08
72118;BME280;59992;47.490;8.736;2024-03-23T03:01:13;95940.80;;;11.61;67.87
72118;BME280;59992;47.490;8.736;2024-03-23T03:04:01;95937.16;;;11.65;67.44
72118;BME280;59992;47.490;8.736;2024-03-23T03:06:49;95932.46;;;11.68;67.27
72118;BME280;59992;47.490;8.736;2024-03-23T03:09:37;95927.46;;;11.69;67.17
72118;BME280;59992;47.490;8.736;2024-03-23T03:12:28;95928.30;;;11.71;66.97
72118;BME280;59992;47.490;8.736;2024-03-23T03:15:17;95928.58;;;11.74;66.27
72118;BME280;59992;47.490;8.736;2024-03-23T03:18:05;95923.57;;;11.80;66.17
72118;BME280;59992;47.490;8.736;2024-03-23T03:20:56;95923.63;;;11.86;66.65
72118;BME280;59992;47.490;8.736;2024-03-23T03:23:48;95922.85;;;11.91;65.94
72118;BME280;59992;47.490;8.736;2024-03-23T03:26:37;95923.21;;;11.99;64.47
72118;BME280;59992;47.490;8.736;2024-03-23T03:29:25;95926.30;;;12.09;65.28
72118;BME280;59992;47.490;8.736;2024-03-23T03:32:21;95929.84;;;12.16;63.42
72118;BME280;59992;47.490;8.736;2024-03-23T03:35:09;95934.61;;;12.20;62.06
72118;BME280;59992;47.490;8.736;2024-03-23T03:37:57;95943.70;;;12.23;61.82
72118;BME280;59992;47.490;8.736;2024-03-23T03:40:47;95942.77;;;12.28;61.73
72118;BME280;59992;47.490;8.736;2024-03-23T03:43:35;95943.26;;;12.22;61.10
72118;BME280;59992;47.490;8.736;2024-03-23T03:46:24;95936.60;;;12.14;61.18
72118;BME280;59992;47.490;8.736;2024-03-23T03:49:12;95933.36;;;12.10;61.99
72118;BME280;59992;47.490;8.736;2024-03-23T03:52:01;95931.85;;;12.05;63.84
72118;BME280;59992;47.490;8.736;2024-03-23T03:54:51;95921.69;;;11.98;63.71
72118;BME280;59992;47.490;8.736;2024-03-23T03:57:39;95910.13;;;11.90;63.35
72118;BME280;59992;47.490;8.736;2024-03-23T04:00:27;95905.50;;;11.85;63.63
72118;BME280;59992;47.490;8.736;2024-03-23T04:03:15;95895.58;;;11.79;63.72
72118;BME280;59992;47.490;8.736;2024-03-23T04:06:04;95891.35;;;11.71;64.35
72118;BME280;59992;47.490;8.736;2024-03-23T04:08:52;95884.36;;;11.61;64.00
72118;BME280;59992;47.490;8.736;2024-03-23T04:11:41;95878.38;;;11.56;63.37
72118;BME280;59992;47.490;8.736;2024-03-23T04:14:29;95875.42;;;11.51;63.93
72118;BME280;59992;47.490;8.736;2024-03-23T04:17:17;95864.67;;;11.46;63.63
72118;BME280;59992;47.490;8.736;2024-03-23T04:20:08;95860.27;;;11.45;63.18
72118;BME280;59992;47.490;8.736;2024-03-23T04:22:58;95855.89;;;11.44;63.18
72118;BME280;59992;47.490;8.736;2024-03-23T04:25:47;95846.32;;;11.42;63.93
72118;BME280;59992;47.490;8.736;2024-03-23T04:28:35;95842.63;;;11.37;64.15
72118;BME280;59992;47.490;8.736;2024-03-23T04:31:23;95844.92;;;11.29;64.43
72118;BME280;59992;47.490;8.736;2024-03-23T04:34:12;95841.51;;;11.19;64.74
72118;BME280;59992;47.490;8.736;2024-03-23T04:37:00;95835.45;;;11.09;65.12
72118;BME280;59992;47.490;8.736;2024-03-23T04:39:48;95833.43;;;11.01;65.07
72118;BME280;59992;47.490;8.736;2024-03-23T04:42:36;95824.18;;;10.90;65.01
72118;BME280;59992;47.490;8.736;2024-03-23T04:45:25;95815.77;;;10.78;66.20
72118;BME280;59992;47.490;8.736;2024-03-23T04:48:13;95810.40;;;10.68;67.48
72118;BME280;59992;47.490;8.736;2024-03-23T04:51:02;95811.38;;;10.57;68.85
72118;BME280;59992;47.490;8.736;2024-03-23T04:53:50;95808.88;;;10.48;67.87
72118;BME280;59992;47.490;8.736;2024-03-23T04:56:38;95804.46;;;10.43;68.03
72118;BME280;59992;47.490;8.736;2024-03-23T04:59:26;95794.70;;;10.41;69.27
72118;BME280;59992;47.490;8.736;2024-03-23T05:02:15;95790.70;;;10.39;70.81
72118;BME280;59992;47.490;8.736;2024-03-23T05:05:04;95790.75;;;10.36;71.26
72118;BME280;59992;47.490;8.736;2024-03-23T05:07:55;95776.38;;;10.33;71.59
72118;BME280;59992;47.490;8.736;2024-03-23T05:10:43;95778.73;;;10.33;70.13
72118;BME280;59992;47.490;8.736;2024-03-23T05:13:32;95779.40;;;10.35;70.18
72118;BME280;59992;47.490;8.736;2024-03-23T05:16:20;95780.85;;;10.37;69.52
72118;BME280;59992;47.490;8.736;2024-03-23T05:19:08;95773.97;;;10.39;69.67
72118;BME280;59992;47.490;8.736;2024-03-23T05:21:57;95772.90;;;10.47;70.42
72118;BME280;59992;47.490;8.736;2024-03-23T05:24:46;95783.96;;;10.56;69.39
72118;BME280;59992;47.490;8.736;2024-03-23T05:27:34;95812.14;;;10.65;68.27
72118;BME280;59992;47.490;8.736;2024-03-23T05:30:23;95826.83;;;10.81;67.24
72118;BME280;59992;47.490;8.736;2024-03-23T05:33:12;95846.61;;;10.98;68.21
72118;BME280;59992;47.490;8.736;2024-03-23T05:36:02;95857.89;;;11.09;71.57
72118;BME280;59992;47.490;8.736;2024-03-23T05:38:51;95865.01;;;11.18;74.40
72118;BME280;59992;47.490;8.736;2024-03-23T05:41:40;95885.48;;;11.17;76.83
72118;BME280;59992;47.490;8.736;2024-03-23T05:44:29;95897.38;;;11.09;78.62
72118;BME280;59992;47.490;8.736;2024-03-23T05:47:18;95887.22;;;11.04;80.18
72118;BME280;59992;47.490;8.736;2024-03-23T05:50:08;95875.40;;;11.00;80.01
72118;BME280;59992;47.490;8.736;2024-03-23T05:52:58;95880.09;;;10.90;82.69
72118;BME280;59992;47.490;8.736;2024-03-23T05:55:46;95890.23;;;10.82;84.33
72118;BME280;59992;47.490;8.736;2024-03-23T05:58:35;95886.44;;;10.75;85.31
72118;BME280;59992;47.490;8.736;2024-03-23T06:01:23;95881.45;;;10.75;85.89
72118;BME280;59992;47.490;8.736;2024-03-23T06:04:11;95900.67;;;10.68;87.35
72118;BME280;59992;47.490;8.736;2024-03-23T06:07:00;95909.82;;;10.63;88.40
72118;BME280;59992;47.490;8.736;2024-03-23T06:09:49;95914.21;;;10.63;89.60
72118;BME280;59992;47.490;8.736;2024-03-23T06:12:38;95917.39;;;10.60;90.85
72118;BME280;59992;47.490;8.736;2024-03-23T06:15:27;95924.05;;;10.61;91.76
72118;BME280;59992;47.490;8.736;2024-03-23T06:18:15;95935.98;;;10.50;94.01
72118;BME280;59992;47.490;8.736;2024-03-23T06:21:04;95937.72;;;10.49;95.32
72118;BME280;59992;47.490;8.736;2024-03-23T06:23:53;95938.98;;;10.39;96.23
72118;BME280;59992;47.490;8.736;2024-03-23T06:26:41;95936.86;;;10.42;96.75
72118;BME280;59992;47.490;8.736;2024-03-23T06:29:29;95945.19;;;10.41;97.26
72118;BME280;59992;47.490;8.736;2024-03-23T06:32:17;95961.67;;;10.39;97.35
72118;BME280;59992;47.490;8.736;2024-03-23T06:35:07;95966.63;;;10.27;97.01
72118;BME280;59992;47.490;8.736;2024-03-23T06:37:55;95972.48;;;10.36;95.61
72118;BME280;59992;47.490;8.736;2024-03-23T06:40:44;95976.02;;;10.29;96.32
72118;BME280;59992;47.490;8.736;2024-03-23T06:43:35;95968.88;;;10.22;94.23
72118;BME280;59992;47.490;8.736;2024-03-23T06:46:23;95971.90;;;10.20;93.81
72118;BME280;59992;47.490;8.736;2024-03-23T06:49:11;95972.09;;;10.13;93.14
72118;BME280;59992;47.490;8.736;2024-03-23T06:52:00;95972.71;;;10.16;91.85
72118;BME280;59992;47.490;8.736;2024-03-23T06:54:48;95967.94;;;10.14;91.90
72118;BME280;59992;47.490;8.736;2024-03-23T06:57:37;95965.74;;;10.06;90.45
72118;BME280;59992;47.490;8.736;2024-03-23T07:00:25;95965.73;;;10.05;91.07
72118;BME280;59992;47.490;8.736;2024-03-23T07:03:14;95978.69;;;10.08;92.13
72118;BME280;59992;47.490;8.736;2024-03-23T07:06:01;95985.84;;;10.02;91.03
72118;BME280;59992;47.490;8.736;2024-03-23T07:08:49;96000.91;;;10.04;90.32
72118;BME280;59992;47.490;8.736;2024-03-23T07:11:39;96019.86;;;9.98;90.06
72118;BME280;59992;47.490;8.736;2024-03-23T07:14:27;96010.09;;;9.97;88.10
72118;BME280;59992;47.490;8.736;2024-03-23T07:17:15;96005.38;;;10.05;88.42
72118;BME280;59992;47.490;8.736;2024-03-23T07:20:06;96015.23;;;10.08;87.04
72118;BME280;59992;47.490;8.736;2024-03-23T07:22:58;96032.52;;;10.12;86.96
72118;BME280;59992;47.490;8.736;2024-03-23T07:25:46;96042.39;;;10.08;86.34
72118;BME280;59992;47.490;8.736;2024-03-23T07:28:44;96052.82;;;10.04;86.45
72118;BME280;59992;47.490;8.736;2024-03-23T07:31:33;96058.98;;;10.00;85.69
72118;BME280;59992;47.490;8.736;2024-03-23T07:34:22;96061.77;;;10.07;85.49
72118;BME280;59992;47.490;8.736;2024-03-23T07:37:11;96066.58;;;10.02;85.27
72118;BME280;59992;47.490;8.736;2024-03-23T07:39:59;96067.77;;;10.00;85.49
72118;BME280;59992;47.490;8.736;2024-03-23T07:42:47;96075.70;;;9.99;85.60
72118;BME280;59992;47.490;8.736;2024-03-23T07:45:35;96077.47;;;9.93;85.77
72118;BME280;59992;47.490;8.736;2024-03-23T07:48:25;96088.66;;;9.93;85.41
72118;BME280;59992;47.490;8.736;2024-03-23T07:51:17;96099.09;;;9.92;85.85
72118;BME280;59992;47.490;8.736;2024-03-23T07:54:05;96104.66;;;9.98;86.30
72118;BME280;59992;47.490;8.736;2024-03-23T07:56:53;96104.19;;;9.95;86.19
72118;BME280;59992;47.490;8.736;2024-03-23T07:59:42;96123.71;;;9.96;86.61
72118;BME280;59992;47.490;8.736;2024-03-23T08:02:30;96128.16;;;9.95;86.23
72118;BME280;59992;47.490;8.736;2024-03-23T08:05:18;96144.41;;;9.77;86.62
72118;BME280;59992;47.490;8.736;2024-03-23T08:08:06;96160.40;;;9.50;87.54
72118;BME280;59992;47.490;8.736;2024-03-23T08:10:54;96166.48;;;9.52;86.61
72118;BME280;59992;47.490;8.736;2024-03-23T08:13:44;96158.07;;;9.36;86.78
72118;BME280;59992;47.490;8.736;2024-03-23T08:16:32;96157.14;;;9.35;86.01
72118;BME280;59992;47.490;8.736;2024-03-23T08:19:21;96158.04;;;9.33;85.75
72118;BME280;59992;47.490;8.736;2024-03-23T08:22:09;96167.74;;;9.36;84.79
72118;BME280;59992;47.490;8.736;2024-03-23T08:24:57;96192.66;;;9.34;84.21
72118;BME280;59992;47.490;8.736;2024-03-23T08:27:45;96214.27;;;9.34;84.18
72118;BME280;59992;47.490;8.736;2024-03-23T08:30:35;96237.29;;;9.37;83.30
72118;BME280;59992;47.490;8.736;2024-03-23T08:33:24;96235.43;;;9.40;83.06
72118;BME280;59992;47.490;8.736;2024-03-23T08:36:12;96249.11;;;9.35;84.47
72118;BME280;59992;47.490;8.736;2024-03-23T08:39:01;96257.36;;;9.23;83.49
72118;BME280;59992;47.490;8.736;2024-03-23T08:41:51;96252.84;;;9.13;82.92
72118;BME280;59992;47.490;8.736;2024-03-23T08:44:39;96265.45;;;9.18;83.00
72118;BME280;59992;47.490;8.736;2024-03-23T08:47:28;96272.98;;;9.10;82.58
72118;BME280;59992;47.490;8.736;2024-03-23T08:50:18;96274.55;;;9.15;81.12
72118;BME280;59992;47.490;8.736;2024-03-23T08:53:06;96288.27;;;9.07;80.26
72118;BME280;59992;47.490;8.736;2024-03-23T08:55:54;96291.50;;;9.05;80.12
72118;BME280;59992;47.490;8.736;2024-03-23T08:58:42;96276.58;;;9.08;80.00
72118;BME280;59992;47.490;8.736;2024-03-23T09:01:30;96287.87;;;9.22;79.10
72118;BME280;59992;47.490;8.736;2024-03-23T09:04:19;96285.20;;;9.27;79.01
72118;BME280;59992;47.490;8.736;2024-03-23T09:07:07;96291.14;;;9.35;76.96
72118;BME280;59992;47.490;8.736;2024-03-23T09:09:55;96292.56;;;9.51;76.17
72118;BME280;59992;47.490;8.736;2024-03-23T09:12:43;96286.90;;;9.63;75.09
72118;BME280;59992;47.490;8.736;2024-03-23T09:15:32;96292.39;;;9.74;73.46
72118;BME280;59992;47.490;8.736;2024-03-23T09:18:20;96297.53;;;10.01;72.08
72118;BME280;59992;47.490;8.736;2024-03-23T09:21:12;96302.94;;;10.10;71.32
72118;BME280;59992;47.490;8.736;2024-03-23T09:24:00;96313.54;;;9.98;69.18
72118;BME280;59992;47.490;8.736;2024-03-23T09:26:48;96327.95;;;9.87;68.23
72118;BME280;59992;47.490;8.736;2024-03-23T09:29:36;96338.71;;;9.72;68.71
72118;BME280;59992;47.490;8.736;2024-03-23T09:32:25;96345.83;;;9.61;68.50
72118;BME280;59992;47.490;8.736;2024-03-23T09:35:12;96352.31;;;9.47;67.44
72118;BME280;59992;47.490;8.736;2024-03-23T09:38:01;96357.05;;;9.41;66.64
72118;BME280;59992;47.490;8.736;2024-03-23T09:40:51;96368.16;;;9.46;67.59
72118;BME280;59992;47.490;8.736;2024-03-23T09:43:40;96373.81;;;9.45;66.49
72118;BME280;59992;47.490;8.736;2024-03-23T09:46:28;96378.89;;;9.35;66.62
72118;BME280;59992;47.490;8.736;2024-03-23T09:49:21;96377.29;;;9.29;65.56
72118;BME280;59992;47.490;8.736;2024-03-23T09:52:10;96371.58;;;9.26;65.51
72118;BME280;59992;47.490;8.736;2024-03-23T09:54:58;96369.64;;;9.23;66.78
72118;BME280;59992;47.490;8.736;2024-03-23T09:57:46;96366.68;;;9.32;65.90
72118;BME280;59992;47.490;8.736;2024-03-23T10:00:34;96373.77;;;9.43;66.62
72118;BME280;59992;47.490;8.736;2024-03-23T10:03:22;96379.21;;;9.58;66.24
72118;BME280;59992;47.490;8.736;2024-03-23T10:06:11;96380.24;;;9.66;64.88
72118;BME280;59992;47.490;8.736;2024-03-23T10:08:58;96376.27;;;9.58;64.15
72118;BME280;59992;47.490;8.736;2024-03-23T10:11:46;96373.36;;;9.41;63.64
72118;BME280;59992;47.490;8.736;2024-03-23T10:14:37;96380.70;;;9.30;63.73
72118;BME280;59992;47.490;8.736;2024-03-23T10:17:25;96388.33;;;9.40;63.36
72118;BME280;59992;47.490;8.736;2024-03-23T10:20:13;96390.44;;;9.44;63.92
72118;BME280;59992;47.490;8.736;2024-03-23T10:23:16;96397.52;;;9.48;65.30
72118;BME280;59992;47.490;8.736;2024-03-23T10:26:16;96402.96;;;9.39;63.57
72118;BME280;59992;47.490;8.736;2024-03-23T10:29:05;96399.54;;;9.46;63.38
72118;BME280;59992;47.490;8.736;2024-03-23T10:32:08;96396.05;;;9.40;62.35
72118;BME280;59992;47.490;8.736;2024-03-23T10:34:57;96390.06;;;9.45;60.05
72118;BME280;59992;47.490;8.736;2024-03-23T10:38:03;96391.10;;;9.54;59.80
72118;BME280;59992;47.490;8.736;2024-03-23T10:40:52;96397.26;;;9.61;60.36
72118;BME280;59992;47.490;8.736;2024-03-23T10:43:44;96379.13;;;9.58;59.49
72118;BME280;59992;47.490;8.736;2024-03-23T10:46:32;96383.64;;;9.67;58.63
72118;BME280;59992;47.490;8.736;2024-03-23T10:49:21;96384.05;;;9.74;55.65
72118;BME280;59992;47.490;8.736;2024-03-23T10:52:10;96389.36;;;9.76;55.00
72118;BME280;59992;47.490;8.736;2024-03-23T10:54:59;96388.86;;;9.67;53.62
72118;BME280;59992;47.490;8.736;2024-03-23T10:57:51;96390.04;;;9.81;54.08
72118;BME280;59992;47.490;8.736;2024-03-23T11:00:41;96398.15;;;9.83;54.00
72118;BME280;59992;47.490;8.736;2024-03-23T11:03:33;96390.65;;;9.71;53.63
72118;BME280;59992;47.490;8.736;2024-03-23T11:06:36;96388.20;;;9.79;52.24
72118;BME280;59992;47.490;8.736;2024-03-23T11:09:39;96391.80;;;9.82;52.36
72118;BME280;59992;47.490;8.736;2024-03-23T11:12:31;96403.39;;;9.84;53.23
72118;BME280;59992;47.490;8.736;2024-03-23T11:15:21;96396.18;;;9.88;51.76
72118;BME280;59992;47.490;8.736;2024-03-23T11:18:09;96388.30;;;9.87;51.38
72118;BME280;59992;47.490;8.736;2024-03-23T11:20:57;96380.27;;;9.86;50.69
72118;BME280;59992;47.490;8.736;2024-03-23T11:23:45;96386.16;;;9.86;52.35
72118;BME280;59992;47.490;8.736;2024-03-23T11:26:39;96381.95;;;10.05;51.73
72118;BME280;59992;47.490;8.736;2024-03-23T11:29:27;96373.02;;;10.11;50.21
72118;BME280;59992;47.490;8.736;2024-03-23T11:32:17;96371.90;;;10.18;50.82
72118;BME280;59992;47.490;8.736;2024-03-23T11:35:07;96375.65;;;10.22;50.33
72118;BME280;59992;47.490;8.736;2024-03-23T11:38:10;96367.11;;;10.36;50.13
72118;BME280;59992;47.490;8.736;2024-03-23T11:41:03;96374.11;;;10.54;49.04
72118;BME280;59992;47.490;8.736;2024-03-23T11:43:53;96362.05;;;10.44;47.90
72118;BME280;59992;47.490;8.736;2024-03-23T11:46:41;96357.84;;;10.47;47.64
72118;BME280;59992;47.490;8.736;2024-03-23T11:49:30;96358.84;;;10.65;48.40
72118;BME280;59992;47.490;8.736;2024-03-23T11:52:18;96358.85;;;10.57;47.06
72118;BME280;59992;47.490;8.736;2024-03-23T11:55:07;96350.32;;;10.69;48.10
72118;BME280;59992;47.490;8.736;2024-03-23T11:57:55;96354.34;;;10.70;46.72
72118;BME280;59992;47.490;8.736;2024-03-23T12:00:49;96349.80;;;10.71;46.33
72118;BME280;59992;47.490;8.736;2024-03-23T12:03:38;96346.65;;;10.75;47.14
72118;BME280;59992;47.490;8.736;2024-03-23T12:06:26;96338.05;;;10.99;47.19
72118;BME280;59992;47.490;8.736;2024-03-23T12:09:14;96337.09;;;11.22;48.07
72118;BME280;59992;47.490;8.736;2024-03-23T12:12:13;96326.09;;;11.44;46.49
72118;BME280;59992;47.490;8.736;2024-03-23T12:15:04;96331.63;;;11.68;46.65
72118;BME280;59992;47.490;8.736;2024-03-23T12:18:06;96329.50;;;12.02;46.86
72118;BME280;59992;47.490;8.736;2024-03-23T12:20:56;96334.17;;;12.16;45.10
72118;BME280;59992;47.490;8.736;2024-03-23T12:23:44;96354.41;;;12.10;46.52
72118;BME280;59992;47.490;8.736;2024-03-23T12:26:35;96358.58;;;11.61;50.50
72118;BME280;59992;47.490;8.736;2024-03-23T12:29:28;96366.85;;;11.07;53.22
72118;BME280;59992;47.490;8.736;2024-03-23T12:32:17;96360.75;;;10.85;55.12
72118;BME280;59992;47.490;8.736;2024-03-23T12:35:06;96367.41;;;10.59;56.22
72118;BME280;59992;47.490;8.736;2024-03-23T12:37:56;96357.48;;;10.15;57.50
72118;BME280;59992;47.490;8.736;2024-03-23T12:40:48;96358.23;;;10.08;57.66
72118;BME280;59992;47.490;8.736;2024-03-23T12:43:37;96350.09;;;9.98;57.74
72118;BME280;59992;47.490;8.736;2024-03-23T12:46:25;96350.75;;;9.90;56.96
72118;BME280;59992;47.490;8.736;2024-03-23T12:49:13;96354.55;;;9.74;55.97
72118;BME280;59992;47.490;8.736;2024-03-23T12:52:01;96345.89;;;9.49;57.24
72118;BME280;59992;47.490;8.736;2024-03-23T12:54:53;96354.86;;;9.63;57.26
72118;BME280;59992;47.490;8.736;2024-03-23T12:57:42;96339.87;;;9.38;56.35
72118;BME280;59992;47.490;8.736;2024-03-23T13:00:30;96335.66;;;9.63;55.51
72118;BME280;59992;47.490;8.736;2024-03-23T13:03:18;96321.11;;;9.73;55.78
72118;BME280;59992;47.490;8.736;2024-03-23T13:06:06;96321.79;;;9.61;54.89
72118;BME280;59992;47.490;8.736;2024-03-23T13:08:55;96320.73;;;9.84;54.54
72118;BME280;59992;47.490;8.736;2024-03-23T13:11:43;96321.63;;;9.91;53.36
72118;BME280;59992;47.490;8.736;2024-03-23T13:14:32;96309.38;;;9.97;52.53
72118;BME280;59992;47.490;8.736;2024-03-23T13:17:20;96312.33;;;10.04;52.54
72118;BME280;59992;47.490;8.736;2024-03-23T13:20:10;96309.96;;;10.09;51.85
72118;BME280;59992;47.490;8.736;2024-03-23T13:23:01;96308.75;;;10.03;51.73
72118;BME280;59992;47.490;8.736;2024-03-23T13:25:53;96312.68;;;10.09;52.85
72118;BME280;59992;47.490;8.736;2024-03-23T13:28:41;96315.16;;;10.07;52.46
72118;BME280;59992;47.490;8.736;2024-03-23T13:31:29;96311.17;;;10.10;54.17
72118;BME280;59992;47.490;8.736;2024-03-23T13:34:18;96299.35;;;10.28;54.40
72118;BME280;59992;47.490;8.736;2024-03-23T13:37:06;96296.59;;;10.40;53.75
72118;BME280;59992;47.490;8.736;2024-03-23T13:39:55;96300.85;;;10.43;53.02
72118;BME280;59992;47.490;8.736;2024-03-23T13:42:43;96298.65;;;10.51;52.82
72118;BME280;59992;47.490;8.736;2024-03-23T13:45:31;96297.86;;;10.64;52.84
72118;BME280;59992;47.490;8.736;2024-03-23T13:48:20;96294.30;;;10.66;52.20
72118;BME280;59992;47.490;8.736;2024-03-23T13:51:08;96290.20;;;10.74;53.86
72118;BME280;59992;47.490;8.736;2024-03-23T13:53:57;96296.20;;;10.84;51.83
72118;BME280;59992;47.490;8.736;2024-03-23T13:56:49;96319.27;;;10.70;51.89
72118;BME280;59992;47.490;8.736;2024-03-23T13:59:37;96321.52;;;10.50;55.07
72118;BME280;59992;47.490;8.736;2024-03-23T14:02:25;96303.02;;;10.39;60.14
72118;BME280;59992;47.490;8.736;2024-03-23T14:05:13;96293.44;;;10.60;58.21
72118;BME280;59992;47.490;8.736;2024-03-23T14:08:01;96288.96;;;10.50;59.27
72118;BME280;59992;47.490;8.736;2024-03-23T14:10:52;96286.94;;;10.52;59.24
72118;BME280;59992;47.490;8.736;2024-03-23T14:13:41;96283.48;;;10.48;58.22
72118;BME280;59992;47.490;8.736;2024-03-23T14:16:30;96278.67;;;10.52;56.21
72118;BME280;59992;47.490;8.736;2024-03-23T14:19:18;96278.85;;;10.48;53.81
72118;BME280;59992;47.490;8.736;2024-03-23T14:22:07;96266.06;;;10.38;53.39
72118;BME280;59992;47.490;8.736;2024-03-23T14:24:55;96264.74;;;10.35;52.65
72118;BME280;59992;47.490;8.736;2024-03-23T14:27:45;96266.80;;;10.05;52.75
72118;BME280;59992;47.490;8.736;2024-03-23T14:30:33;96259.64;;;9.88;52.72
72118;BME280;59992;47.490;8.736;2024-03-23T14:33:21;96264.73;;;9.76;51.89
72118;BME280;59992;47.490;8.736;2024-03-23T14:36:09;96267.29;;;9.76;51.18
72118;BME280;59992;47.490;8.736;2024-03-23T14:38:56;96258.92;;;9.99;51.50
72118;BME280;59992;47.490;8.736;2024-03-23T14:41:45;96258.95;;;10.15;50.48
72118;BME280;59992;47.490;8.736;2024-03-23T14:44:33;96254.77;;;10.20;50.04
72118;BME280;59992;47.490;8.736;2024-03-23T14:47:22;96259.55;;;10.23;49.64
72118;BME280;59992;47.490;8.736;2024-03-23T14:50:10;96257.12;;;10.28;49.63
72118;BME280;59992;47.490;8.736;2024-03-23T14:53:02;96262.64;;;10.27;48.60
72118;BME280;59992;47.490;8.736;2024-03-23T14:55:50;96264.83;;;10.12;48.36
72118;BME280;59992;47.490;8.736;2024-03-23T14:58:38;96263.71;;;10.14;48.59
72118;BME280;59992;47.490;8.736;2024-03-23T15:01:27;96263.11;;;10.37;49.35
72118;BME280;59992;47.490;8.736;2024-03-23T15:04:15;96261.45;;;10.58;46.78
72118;BME280;59992;47.490;8.736;2024-03-23T15:07:04;96256.07;;;10.76;45.50
72118;BME280;59992;47.490;8.736;2024-03-23T15:09:52;96261.84;;;10.88;43.67
72118;BME280;59992;47.490;8.736;2024-03-23T15:12:41;96253.05;;;10.88;43.59
72118;BME280;59992;47.490;8.736;2024-03-23T15:15:31;96253.70;;;10.94;43.54
72118;BME280;59992;47.490;8.736;2024-03-23T15:18:19;96247.85;;;11.04;43.36
72118;BME280;59992;47.490;8.736;2024-03-23T15:21:13;96251.86;;;10.91;42.27
72118;BME280;59992;47.490;8.736;2024-03-23T15:24:08;96246.21;;;10.86;42.83
72118;BME280;59992;47.490;8.736;2024-03-23T15:26:59;96250.77;;;10.85;43.98
72118;BME280;59992;47.490;8.736;2024-03-23T15:29:47;96256.27;;;10.83;44.10
72118;BME280;59992;47.490;8.736;2024-03-23T15:32:35;96250.55;;;10.88;42.40
72118;BME280;59992;47.490;8.736;2024-03-23T15:35:24;96249.67;;;10.94;42.86
72118;BME280;59992;47.490;8.736;2024-03-23T15:38:12;96241.83;;;11.01;42.84
72118;BME280;59992;47.490;8.736;2024-03-23T15:41:00;96239.64;;;11.12;42.23
72118;BME280;59992;47.490;8.736;2024-03-23T15:43:49;96230.91;;;10.98;41.93
72118;BME280;59992;47.490;8.736;2024-03-23T15:46:37;96229.64;;;10.76;41.28
72118;BME280;59992;47.490;8.736;2024-03-23T15:49:26;96231.67;;;10.66;41.70
72118;BME280;59992;47.490;8.736;2024-03-23T15:52:17;96228.77;;;10.61;41.82
72118;BME280;59992;47.490;8.736;2024-03-23T15:55:07;96222.50;;;10.52;41.44